Time;durP1;ratioP1;P1;durP2;ratioP2;P2;SDS_P1;SDS_P2;PMS_P1;PMS_P2;Temp;Humidity;BMP_temperature;BMP_pressure;BME280_temperature;BME280_humidity;BME280_pressure;Samples;Min_cycle;Max_cycle;Signal;HPM_P1;HPM_P2
2021/10/18 00:00:40;;;;;;;24.85;14.98;;;12.70;99.90;;;;;;5038091;28;20033;-87
2021/10/18 00:03:06;;;;;;;12.07;8.95;;;12.70;99.90;;;;;;5036752;28;20030;-87
2021/10/18 00:05:32;;;;;;;18.25;12.40;;;12.60;99.90;;;;;;5032785;28;20029;-87
2021/10/18 00:07:57;;;;;;;10.68;7.75;;;12.70;99.90;;;;;;5032466;28;20029;-87
2021/10/18 00:10:23;;;;;;;20.48;12.50;;;12.60;99.90;;;;;;5033324;28;20467;-87
2021/10/18 00:12:49;;;;;;;18.88;12.90;;;12.60;99.90;;;;;;5032813;28;20033;-87
2021/10/18 00:15:16;;;;;;;16.45;10.05;;;12.60;99.90;;;;;;5034189;28;20096;-87
2021/10/18 00:17:42;;;;;;;17.98;11.05;;;12.60;99.90;;;;;;5034225;28;20034;-87
2021/10/18 00:20:11;;;;;;;17.83;11.90;;;12.50;99.90;;;;;;5033333;28;20532;-87
2021/10/18 00:22:36;;;;;;;13.98;8.25;;;12.50;99.90;;;;;;5033200;28;20376;-88
2021/10/18 00:25:03;;;;;;;14.45;9.80;;;12.50;99.90;;;;;;5033042;28;20032;-88
2021/10/18 00:27:28;;;;;;;16.33;11.00;;;12.50;99.90;;;;;;5033083;28;20021;-88
2021/10/18 00:29:54;;;;;;;13.27;7.88;;;12.50;99.90;;;;;;5033046;28;20033;-88
2021/10/18 00:32:20;;;;;;;19.95;12.02;;;12.40;99.90;;;;;;5034353;28;20518;-87
2021/10/18 00:34:45;;;;;;;16.27;10.57;;;12.40;99.90;;;;;;5033773;28;20463;-88
2021/10/18 00:37:11;;;;;;;14.30;8.90;;;12.40;99.90;;;;;;5033254;28;20033;-87
2021/10/18 00:39:37;;;;;;;20.42;10.55;;;12.40;99.90;;;;;;5034387;28;20028;-86
2021/10/18 00:42:03;;;;;;;18.70;10.65;;;12.30;99.90;;;;;;5034193;28;20057;-86
2021/10/18 00:44:31;;;;;;;15.15;9.50;;;12.30;99.90;;;;;;5033823;28;20022;-88
2021/10/18 00:46:57;;;;;;;13.23;8.98;;;12.30;99.90;;;;;;5032556;28;20036;-87
2021/10/18 00:49:23;;;;;;;11.60;7.70;;;12.20;99.90;;;;;;5032457;28;20120;-87
2021/10/18 00:51:49;;;;;;;8.60;6.70;;;12.20;99.90;;;;;;5032266;28;20071;-87
2021/10/18 00:54:15;;;;;;;10.07;7.07;;;12.20;99.90;;;;;;5033520;28;20057;-87
2021/10/18 00:56:41;;;;;;;9.32;7.05;;;12.20;99.90;;;;;;5032163;28;20030;-87
2021/10/18 00:59:08;;;;;;;18.83;10.70;;;12.10;99.90;;;;;;5033664;28;20025;-87
2021/10/18 01:01:34;;;;;;;13.85;9.18;;;12.10;99.90;;;;;;5032369;28;20488;-88
2021/10/18 01:04:02;;;;;;;14.00;9.18;;;12.10;99.90;;;;;;5033478;28;20148;-88
2021/10/18 01:06:28;;;;;;;17.40;10.77;;;12.00;99.90;;;;;;5033390;28;20100;-88
2021/10/18 01:08:53;;;;;;;12.85;8.45;;;12.00;99.90;;;;;;5032105;28;20528;-87
2021/10/18 01:11:19;;;;;;;16.88;8.50;;;12.00;99.90;;;;;;5033428;28;20044;-87
2021/10/18 01:13:46;;;;;;;25.92;14.25;;;12.00;99.90;;;;;;5033611;28;20021;-88
2021/10/18 01:16:12;;;;;;;10.68;7.97;;;12.00;99.90;;;;;;5032177;28;20047;-87
2021/10/18 01:18:38;;;;;;;12.50;7.68;;;11.90;99.90;;;;;;5031963;28;20120;-88
2021/10/18 01:21:04;;;;;;;17.58;10.50;;;11.90;99.90;;;;;;5028083;28;20124;-87
2021/10/18 01:23:30;;;;;;;10.73;7.88;;;11.90;99.90;;;;;;5032703;28;20040;-88
2021/10/18 01:25:55;;;;;;;12.63;8.13;;;11.90;99.90;;;;;;5048501;28;20116;-87
2021/10/18 01:28:21;;;;;;;11.90;8.18;;;11.90;99.90;;;;;;5048955;28;20116;-87
2021/10/18 01:30:47;;;;;;;12.52;7.60;;;11.80;99.90;;;;;;5032283;28;20120;-88
2021/10/18 01:33:13;;;;;;;22.88;12.13;;;11.80;99.90;;;;;;5048838;28;20034;-87
2021/10/18 01:35:39;;;;;;;17.42;10.40;;;11.80;99.90;;;;;;5032051;28;20029;-88
2021/10/18 01:38:05;;;;;;;17.20;11.50;;;11.80;99.90;;;;;;5048554;28;20136;-87
2021/10/18 01:40:31;;;;;;;11.95;8.85;;;11.80;99.90;;;;;;5031661;28;20057;-87
2021/10/18 01:42:56;;;;;;;13.68;9.57;;;11.80;99.90;;;;;;5032024;28;20469;-87
2021/10/18 01:45:23;;;;;;;30.65;17.95;;;11.80;99.90;;;;;;5033588;28;20041;-87
2021/10/18 01:47:49;;;;;;;20.48;12.00;;;11.70;99.90;;;;;;5033354;28;20025;-87
2021/10/18 01:50:24;;;;;;;20.58;13.20;;;11.70;99.90;;;;;;5037266;28;20076;-87
2021/10/18 01:52:51;;;;;;;17.45;9.90;;;11.70;99.90;;;;;;5034149;28;20030;-87
2021/10/18 01:55:17;;;;;;;29.10;16.23;;;11.70;99.90;;;;;;5031410;28;20029;-87
2021/10/18 01:57:43;;;;;;;26.00;17.05;;;11.70;99.90;;;;;;5031986;28;20037;-88
2021/10/18 02:00:10;;;;;;;25.42;16.05;;;11.60;99.90;;;;;;5031842;28;20167;-87
2021/10/18 02:02:36;;;;;;;29.10;16.67;;;11.60;99.90;;;;;;5031726;28;20030;-88
2021/10/18 02:05:02;;;;;;;15.85;10.60;;;11.60;99.90;;;;;;5032913;28;20026;-88
2021/10/18 02:07:27;;;;;;;15.80;10.00;;;11.50;99.90;;;;;;5031455;28;20022;-87
2021/10/18 02:09:53;;;;;;;14.45;10.13;;;11.50;99.90;;;;;;5031345;28;20040;-88
2021/10/18 02:12:20;;;;;;;23.98;15.13;;;11.50;99.90;;;;;;5032121;28;20022;-87
2021/10/18 02:14:46;;;;;;;25.20;16.75;;;11.40;99.90;;;;;;5035247;28;20030;-87
2021/10/18 02:17:13;;;;;;;15.93;10.90;;;11.40;99.90;;;;;;5036536;28;20037;-87
2021/10/18 02:19:38;;;;;;;25.30;16.42;;;11.40;99.90;;;;;;5035014;28;20034;-87
2021/10/18 02:22:04;;;;;;;22.55;14.98;;;11.30;99.90;;;;;;5035092;28;20062;-87
2021/10/18 02:24:30;;;;;;;27.40;16.02;;;11.30;99.90;;;;;;5051402;28;20033;-87
2021/10/18 02:26:55;;;;;;;16.52;11.10;;;11.30;99.90;;;;;;5034975;28;20022;-87
2021/10/18 02:29:21;;;;;;;24.88;15.10;;;11.30;99.90;;;;;;5035015;28;20356;-88
2021/10/18 02:31:47;;;;;;;27.80;17.52;;;11.20;99.90;;;;;;5036359;28;20022;-87
2021/10/18 02:34:13;;;;;;;27.48;17.92;;;11.20;99.90;;;;;;5034977;28;20124;-86
2021/10/18 02:36:39;;;;;;;25.92;15.48;;;11.10;99.90;;;;;;5034611;28;20029;-87
2021/10/18 02:39:04;;;;;;;25.08;16.73;;;11.10;99.90;;;;;;5034354;28;20513;-87
2021/10/18 02:41:30;;;;;;;26.92;16.33;;;11.10;99.90;;;;;;5034717;28;20099;-87
2021/10/18 02:43:56;;;;;;;21.20;13.38;;;11.00;99.90;;;;;;5034599;28;20030;-87
2021/10/18 02:46:22;;;;;;;29.25;17.80;;;11.00;99.90;;;;;;5034627;28;20543;-87
2021/10/18 02:48:48;;;;;;;15.57;10.93;;;10.90;99.90;;;;;;5034469;28;20056;-87
2021/10/18 02:51:13;;;;;;;25.02;15.07;;;10.90;99.90;;;;;;5035452;28;20116;-87
2021/10/18 02:53:39;;;;;;;24.58;15.90;;;10.90;99.90;;;;;;5033999;28;20065;-86
2021/10/18 02:56:05;;;;;;;27.45;17.13;;;10.80;99.90;;;;;;5035406;28;20439;-86
2021/10/18 02:58:30;;;;;;;22.65;15.75;;;10.80;99.90;;;;;;5034039;28;20038;-86
2021/10/18 03:00:56;;;;;;;25.73;17.05;;;10.80;99.90;;;;;;5034311;28;20025;-86
2021/10/18 03:03:21;;;;;;;30.48;18.02;;;10.80;99.90;;;;;;5035473;28;20064;-87
2021/10/18 03:05:47;;;;;;;28.00;16.27;;;10.80;99.90;;;;;;5035811;28;20045;-87
2021/10/18 03:08:13;;;;;;;29.92;16.77;;;10.70;99.90;;;;;;5036029;28;20040;-87
2021/10/18 03:10:41;;;;;;;22.10;13.48;;;10.70;99.90;;;;;;5035889;28;20084;-87
2021/10/18 03:13:08;;;;;;;18.35;11.77;;;10.70;99.90;;;;;;5034260;28;20056;-86
2021/10/18 03:15:33;;;;;;;26.88;16.38;;;10.70;99.90;;;;;;5033880;28;20049;-87
2021/10/18 03:17:59;;;;;;;23.50;14.98;;;10.70;99.90;;;;;;5033783;28;20045;-87
2021/10/18 03:20:25;;;;;;;31.15;19.90;;;10.70;99.90;;;;;;5031196;28;20033;-87
2021/10/18 03:22:50;;;;;;;30.63;19.35;;;10.70;99.90;;;;;;5033526;28;20510;-87
2021/10/18 03:25:16;;;;;;;29.48;18.90;;;10.70;99.90;;;;;;5032524;28;20033;-88
2021/10/18 03:27:42;;;;;;;46.33;27.98;;;10.70;99.90;;;;;;5034897;28;20038;-87
2021/10/18 03:30:08;;;;;;;54.92;30.27;;;10.70;99.90;;;;;;5034734;28;20029;-87
2021/10/18 03:32:33;;;;;;;26.02;16.83;;;10.70;99.90;;;;;;5033877;28;20044;-87
2021/10/18 03:34:59;;;;;;;31.33;18.85;;;10.70;99.90;;;;;;5033541;28;20467;-86
2021/10/18 03:37:25;;;;;;;26.55;16.23;;;10.70;99.90;;;;;;5033567;28;20073;-87
2021/10/18 03:39:50;;;;;;;20.77;14.07;;;10.60;99.90;;;;;;5033496;28;20021;-87
2021/10/18 03:42:16;;;;;;;30.20;18.55;;;10.50;99.90;;;;;;5033348;28;20512;-87
2021/10/18 03:44:42;;;;;;;22.08;13.98;;;10.50;99.90;;;;;;5034392;28;20025;-87
2021/10/18 03:47:07;;;;;;;26.30;15.57;;;10.40;99.90;;;;;;5033058;28;20025;-86
2021/10/18 03:49:33;;;;;;;22.73;13.50;;;10.40;99.90;;;;;;5032954;28;20079;-87
2021/10/18 03:51:59;;;;;;;33.22;18.63;;;10.40;99.90;;;;;;5034454;28;20045;-87
2021/10/18 03:54:24;;;;;;;31.25;18.65;;;10.30;99.90;;;;;;5033184;28;20027;-87
2021/10/18 03:56:50;;;;;;;30.98;19.10;;;10.30;99.90;;;;;;5033116;28;20029;-86
2021/10/18 03:59:16;;;;;;;35.92;22.33;;;10.40;99.90;;;;;;5034138;28;20033;-87
2021/10/18 04:01:41;;;;;;;48.42;28.20;;;10.40;99.90;;;;;;5034138;28;20071;-87
2021/10/18 04:04:07;;;;;;;44.30;25.23;;;10.40;99.90;;;;;;5033933;28;20018;-87
2021/10/18 04:06:33;;;;;;;41.15;24.48;;;10.40;99.90;;;;;;5032825;28;20121;-87
2021/10/18 04:08:58;;;;;;;44.17;26.48;;;10.40;99.90;;;;;;5032885;28;20026;-87
2021/10/18 04:11:24;;;;;;;44.60;25.02;;;10.40;99.90;;;;;;5032730;28;20430;-87
2021/10/18 04:13:50;;;;;;;29.13;17.98;;;10.40;99.90;;;;;;5032816;28;20032;-87
2021/10/18 04:16:15;;;;;;;31.05;18.15;;;10.40;99.90;;;;;;5036451;28;20041;-87
2021/10/18 04:18:41;;;;;;;36.25;20.35;;;10.40;99.90;;;;;;5041491;28;20250;-87
2021/10/18 04:21:07;;;;;;;34.75;22.60;;;10.30;99.90;;;;;;5020879;28;20017;-86
2021/10/18 04:23:33;;;;;;;37.58;22.05;;;10.40;99.90;;;;;;5022177;28;20134;-87
2021/10/18 04:25:59;;;;;;;64.75;35.85;;;10.40;99.90;;;;;;5025797;28;20018;-87
2021/10/18 04:28:25;;;;;;;60.60;34.85;;;10.40;99.90;;;;;;5021305;28;20083;-86
2021/10/18 04:30:51;;;;;;;65.63;37.80;;;10.40;99.90;;;;;;5021887;28;20048;-86
2021/10/18 04:33:17;;;;;;;68.07;37.20;;;10.50;99.90;;;;;;5020112;28;20033;-86
2021/10/18 04:35:42;;;;;;;66.60;37.33;;;10.60;99.90;;;;;;5021940;28;20021;-86
2021/10/18 04:38:08;;;;;;;63.17;34.97;;;10.60;99.90;;;;;;5023663;28;20033;-87
2021/10/18 04:40:34;;;;;;;67.93;36.00;;;10.60;99.90;;;;;;5023162;28;20076;-87
2021/10/18 04:43:00;;;;;;;57.55;31.85;;;10.60;99.90;;;;;;5019624;28;20053;-87
2021/10/18 04:45:26;;;;;;;49.13;25.90;;;10.70;99.90;;;;;;5019873;28;20057;-87
2021/10/18 04:47:51;;;;;;;34.47;20.27;;;10.70;99.90;;;;;;5020766;28;20415;-86
2021/10/18 04:50:19;;;;;;;63.35;34.00;;;10.70;99.90;;;;;;5013492;28;20105;-87
2021/10/18 04:52:45;;;;;;;60.72;33.05;;;10.70;99.90;;;;;;5013585;28;20080;-87
2021/10/18 04:55:12;;;;;;;57.90;32.75;;;10.70;99.90;;;;;;5012426;28;20025;-88
2021/10/18 04:57:56;;;;;;;61.85;33.40;;;10.80;99.90;;;;;;5012181;28;20100;-88
2021/10/18 05:00:23;;;;;;;53.42;31.30;;;10.80;99.90;;;;;;5013511;28;20030;-88
2021/10/18 05:02:49;;;;;;;54.60;31.70;;;10.80;99.90;;;;;;5013785;28;20072;-87
2021/10/18 05:05:14;;;;;;;50.40;25.88;;;10.80;99.90;;;;;;5013970;28;20026;-87
2021/10/18 05:07:40;;;;;;;53.28;31.50;;;10.80;99.90;;;;;;5012359;28;20037;-87
2021/10/18 05:10:10;;;;;;;57.75;30.80;;;10.80;99.90;;;;;;5013729;28;20022;-88
2021/10/18 05:12:36;;;;;;;55.97;30.80;;;10.80;99.90;;;;;;5014054;28;20048;-88
2021/10/18 05:15:01;;;;;;;55.17;30.02;;;10.80;99.90;;;;;;5012711;28;20483;-87
2021/10/18 05:17:27;;;;;;;51.60;27.65;;;10.70;99.90;;;;;;5012123;28;20041;-88
2021/10/18 05:19:53;;;;;;;47.80;28.42;;;10.80;99.90;;;;;;5012449;28;20076;-87
2021/10/18 05:22:18;;;;;;;47.38;25.85;;;10.70;99.90;;;;;;5024398;28;20068;-88
2021/10/18 05:24:44;;;;;;;44.50;24.50;;;10.70;99.90;;;;;;5033133;28;20438;-88
2021/10/18 05:27:10;;;;;;;42.63;24.17;;;10.70;99.90;;;;;;5033104;28;20033;-87
2021/10/18 05:29:36;;;;;;;49.22;26.67;;;10.70;99.90;;;;;;5033132;28;20071;-87
2021/10/18 05:32:02;;;;;;;45.63;26.23;;;10.70;99.90;;;;;;5031639;28;20038;-87
2021/10/18 05:34:28;;;;;;;45.75;25.17;;;10.70;99.90;;;;;;5032900;28;20037;-87
2021/10/18 05:36:53;;;;;;;49.25;26.40;;;10.70;99.90;;;;;;5031615;28;20025;-88
2021/10/18 05:39:19;;;;;;;41.78;24.05;;;10.60;99.90;;;;;;5031857;28;20056;-87
2021/10/18 05:41:45;;;;;;;48.38;26.27;;;10.60;99.90;;;;;;5032877;28;20163;-88
2021/10/18 05:44:10;;;;;;;45.67;24.70;;;10.60;99.90;;;;;;5031372;28;20052;-87
2021/10/18 05:46:36;;;;;;;40.80;23.15;;;10.60;99.90;;;;;;5031367;28;20486;-89
2021/10/18 05:49:02;;;;;;;38.28;21.13;;;10.60;99.90;;;;;;5034327;28;20032;-88
2021/10/18 05:51:29;;;;;;;34.30;19.92;;;10.60;99.90;;;;;;5036044;28;20113;-87
2021/10/18 05:53:55;;;;;;;41.00;23.73;;;10.60;99.90;;;;;;5035559;28;20029;-88
2021/10/18 05:56:20;;;;;;;43.47;24.70;;;10.60;99.90;;;;;;5036999;28;20033;-88
2021/10/18 05:58:46;;;;;;;47.30;26.02;;;10.60;99.90;;;;;;5024516;28;20085;-88
2021/10/18 06:01:12;;;;;;;45.35;25.40;;;10.50;99.90;;;;;;5025305;28;20021;-88
2021/10/18 06:03:37;;;;;;;45.63;25.88;;;10.50;99.90;;;;;;5024295;28;20030;-88
2021/10/18 06:06:07;;;;;;;43.08;23.92;;;10.40;99.90;;;;;;5024951;28;20026;-88
2021/10/18 06:08:32;;;;;;;44.67;24.73;;;10.40;99.90;;;;;;5026079;28;20535;-89
2021/10/18 06:10:58;;;;;;;49.85;26.20;;;10.40;99.90;;;;;;5022959;28;20117;-89
2021/10/18 06:13:24;;;;;;;48.17;26.77;;;10.40;99.90;;;;;;5028477;28;20093;-87
2021/10/18 06:15:50;;;;;;;52.83;27.15;;;10.40;99.90;;;;;;5025210;28;20082;-88
2021/10/18 06:18:17;;;;;;;46.63;26.25;;;10.40;99.90;;;;;;5023446;28;20117;-89
2021/10/18 06:20:45;;;;;;;48.47;25.23;;;10.40;99.90;;;;;;5023618;28;20049;-88
2021/10/18 06:23:12;;;;;;;37.65;22.00;;;10.40;99.90;;;;;;5025408;28;20033;-88
2021/10/18 06:25:39;;;;;;;49.60;26.20;;;10.40;99.90;;;;;;5024155;28;20052;-88
2021/10/18 06:28:04;;;;;;;40.65;23.67;;;10.40;99.90;;;;;;5025660;28;20021;-88
2021/10/18 06:30:32;;;;;;;42.60;24.90;;;10.40;99.90;;;;;;5022425;28;20361;-88
2021/10/18 06:32:57;;;;;;;46.25;24.27;;;10.50;99.90;;;;;;5026218;28;20018;-88
2021/10/18 06:35:23;;;;;;;42.13;23.98;;;10.50;99.90;;;;;;5023533;28;20030;-88
2021/10/18 06:37:50;;;;;;;48.55;24.83;;;10.50;99.90;;;;;;5025672;28;20029;-88
2021/10/18 06:40:16;;;;;;;40.05;21.95;;;10.50;99.90;;;;;;5023616;28;20021;-87
2021/10/18 06:42:42;;;;;;;45.90;24.98;;;10.50;99.90;;;;;;5022488;28;20041;-88
2021/10/18 06:45:09;;;;;;;41.55;22.92;;;10.50;99.90;;;;;;5025345;28;20411;-88
2021/10/18 06:47:35;;;;;;;44.05;24.20;;;10.50;99.90;;;;;;5024254;28;20132;-89
2021/10/18 06:50:01;;;;;;;44.38;24.98;;;10.50;99.90;;;;;;5024170;28;20099;-88
2021/10/18 06:52:31;;;;;;;34.47;20.63;;;10.50;99.90;;;;;;5025479;28;20490;-88
2021/10/18 06:54:59;;;;;;;43.47;24.50;;;10.60;99.90;;;;;;5024442;28;20460;-88
2021/10/18 06:57:24;;;;;;;46.03;25.42;;;10.60;99.90;;;;;;5021987;28;20040;-88
2021/10/18 06:59:50;;;;;;;39.50;23.42;;;10.60;99.90;;;;;;5022875;28;20029;-88
2021/10/18 07:02:18;;;;;;;44.40;26.08;;;10.60;99.90;;;;;;5024116;28;20406;-88
2021/10/18 07:04:44;;;;;;;31.48;18.75;;;10.70;99.90;;;;;;5025130;28;20033;-88
2021/10/18 07:07:10;;;;;;;41.28;24.90;;;10.60;99.90;;;;;;5024255;28;20063;-88
2021/10/18 07:09:36;;;;;;;45.55;25.58;;;10.70;99.90;;;;;;5021785;28;20017;-88
2021/10/18 07:12:02;;;;;;;38.40;23.23;;;10.70;99.90;;;;;;5024135;28;20466;-88
2021/10/18 07:14:27;;;;;;;43.83;24.70;;;10.70;99.90;;;;;;5023910;28;20509;-89
2021/10/18 07:16:53;;;;;;;42.72;26.02;;;10.70;99.90;;;;;;5033777;28;20092;-88
2021/10/18 07:19:19;;;;;;;37.58;19.98;;;10.80;99.90;;;;;;5024280;28;20033;-89
2021/10/18 07:21:46;;;;;;;40.72;24.52;;;10.80;99.90;;;;;;5023936;28;20517;-89
2021/10/18 07:24:13;;;;;;;40.65;22.60;;;10.80;99.90;;;;;;5025672;28;20056;-88
2021/10/18 07:26:38;;;;;;;33.42;20.02;;;10.80;99.90;;;;;;5022732;28;20021;-87
2021/10/18 07:29:04;;;;;;;43.95;24.52;;;10.80;99.90;;;;;;5023933;28;20472;-87
2021/10/18 07:31:30;;;;;;;44.15;24.40;;;10.90;99.90;;;;;;5035584;28;20014;-88
2021/10/18 07:34:01;;;;;;;47.10;27.33;;;10.80;99.90;;;;;;5023110;28;20068;-87
2021/10/18 07:36:29;;;;;;;47.20;25.92;;;10.90;99.90;;;;;;5025644;28;20067;-88
2021/10/18 07:39:03;;;;;;;42.85;24.95;;;11.00;99.90;;;;;;5030495;28;20487;-88
2021/10/18 07:41:28;;;;;;;38.38;21.70;;;11.00;99.90;;;;;;5032561;28;20120;-88
2021/10/18 07:43:54;;;;;;;43.42;23.90;;;11.00;99.90;;;;;;5026061;28;20116;-88
2021/10/18 07:46:20;;;;;;;52.17;27.88;;;11.00;99.90;;;;;;5019777;28;20446;-87
2021/10/18 07:48:45;;;;;;;37.15;22.23;;;11.00;99.90;;;;;;5026031;28;20053;-89
2021/10/18 07:51:11;;;;;;;43.53;24.70;;;11.10;99.90;;;;;;5017854;28;20026;-89
2021/10/18 07:53:37;;;;;;;39.22;22.65;;;11.10;99.90;;;;;;5027108;28;20061;-88
2021/10/18 07:56:03;;;;;;;46.65;25.13;;;11.10;99.90;;;;;;5032031;28;20025;-88
2021/10/18 07:58:28;;;;;;;45.58;24.13;;;11.10;99.90;;;;;;5026235;28;20176;-87
2021/10/18 08:00:54;;;;;;;48.40;25.85;;;11.10;99.90;;;;;;5024755;28;20029;-87
2021/10/18 08:03:20;;;;;;;42.35;23.88;;;11.20;99.90;;;;;;5026131;28;20045;-88
2021/10/18 08:05:45;;;;;;;42.40;22.92;;;11.20;99.90;;;;;;5028705;28;20014;-88
2021/10/18 08:08:13;;;;;;;46.45;25.85;;;11.20;99.90;;;;;;5031997;28;20037;-88
2021/10/18 08:10:39;;;;;;;32.88;19.70;;;11.30;99.90;;;;;;5029312;28;20022;-87
2021/10/18 08:13:05;;;;;;;44.33;24.08;;;11.30;99.90;;;;;;5024489;28;20033;-88
2021/10/18 08:15:31;;;;;;;46.78;24.77;;;11.30;99.90;;;;;;5029250;28;20399;-88
2021/10/18 08:17:57;;;;;;;44.20;23.50;;;11.30;99.90;;;;;;5026969;28;20047;-88
2021/10/18 08:20:23;;;;;;;43.35;24.10;;;11.30;99.90;;;;;;5034868;28;20029;-86
2021/10/18 08:22:49;;;;;;;50.38;26.80;;;11.40;99.90;;;;;;5026540;28;20026;-86
2021/10/18 08:25:15;;;;;;;57.72;29.38;;;11.40;99.90;;;;;;5048754;28;20021;-86
2021/10/18 08:27:41;;;;;;;32.15;19.73;;;11.40;99.90;;;;;;5045737;28;20027;-89
2021/10/18 08:30:08;;;;;;;39.30;23.33;;;11.40;99.90;;;;;;5035390;28;20348;-88
2021/10/18 08:32:35;;;;;;;77.28;38.80;;;11.40;99.90;;;;;;5021318;28;20489;-88
2021/10/18 08:35:01;;;;;;;99.95;49.05;;;11.40;99.90;;;;;;5022275;28;20029;-88
2021/10/18 08:38:17;;;;;;;86.43;42.83;;;11.40;99.90;;;;;;5021382;28;20030;-88
2021/10/18 08:40:13;;;;;;;75.03;36.92;;;11.50;99.90;;;;;;5022455;28;20467;-88
2021/10/18 08:45:23;;;;;;;70.90;34.05;;;11.50;99.90;;;;;;5023920;28;20034;-89
2021/10/18 08:47:49;;;;;;;61.42;29.63;;;11.50;99.90;;;;;;5025045;28;20021;-89
2021/10/18 08:50:16;;;;;;;52.67;26.83;;;11.50;99.90;;;;;;5025127;28;20072;-88
2021/10/18 08:52:43;;;;;;;62.75;29.27;;;11.50;99.90;;;;;;5021420;28;20021;-89
2021/10/18 08:55:09;;;;;;;61.17;29.05;;;11.60;99.90;;;;;;5024355;28;20026;-89
2021/10/18 08:57:35;;;;;;;61.92;28.75;;;11.60;99.90;;;;;;5022666;28;20041;-89
2021/10/18 09:00:04;;;;;;;58.58;28.73;;;11.60;99.90;;;;;;5021991;28;20017;-86
2021/10/18 09:02:39;;;;;;;59.47;28.17;;;11.60;99.90;;;;;;5031069;28;20116;-88
2021/10/18 09:05:08;;;;;;;58.42;28.90;;;11.60;99.90;;;;;;5024291;28;20021;-89
2021/10/18 09:07:38;;;;;;;54.38;26.45;;;11.60;99.90;;;;;;5041025;28;20035;-89
2021/10/18 09:10:13;;;;;;;55.58;26.75;;;11.70;99.90;;;;;;5050980;28;20124;-88
2021/10/18 09:12:40;;;;;;;57.47;26.98;;;11.70;99.90;;;;;;5052197;28;20025;-88
2021/10/18 09:15:26;;;;;;;57.03;26.13;;;11.70;99.90;;;;;;5052092;28;20029;-88
2021/10/18 09:17:54;;;;;;;48.63;25.85;;;11.70;99.90;;;;;;5052141;28;20041;-88
2021/10/18 09:20:38;;;;;;;44.63;24.30;;;11.80;99.90;;;;;;5052352;28;20028;-91
2021/10/18 09:23:48;;;;;;;49.05;27.10;;;11.80;99.90;;;;;;5043635;28;20018;-90
2021/10/18 09:26:15;;;;;;;39.70;23.20;;;11.90;99.90;;;;;;5033132;28;20091;-89
2021/10/18 09:28:41;;;;;;;47.00;25.92;;;11.90;99.90;;;;;;5031374;28;20052;-91
2021/10/18 09:31:16;;;;;;;54.63;26.33;;;12.00;99.90;;;;;;5030448;28;20061;-89
2021/10/18 09:33:46;;;;;;;43.70;24.77;;;12.10;99.90;;;;;;5030729;28;20487;-89
2021/10/18 09:36:16;;;;;;;44.17;23.30;;;12.10;99.90;;;;;;5031853;28;20198;-91
2021/10/18 09:38:42;;;;;;;39.63;23.50;;;12.20;99.90;;;;;;5030343;28;20070;-90
2021/10/18 09:41:08;;;;;;;42.65;22.80;;;12.20;99.90;;;;;;5031501;28;20300;-89
2021/10/18 09:46:23;;;;;;;42.08;24.90;;;12.40;99.90;;;;;;5033357;28;20438;-89
2021/10/18 10:54:47;;;;;;;40.28;23.35;;;12.80;99.90;;;;;;5037189;28;20095;-90
2021/10/18 10:57:13;;;;;;;41.53;22.77;;;12.80;99.90;;;;;;5035661;28;20021;-90
2021/10/18 10:59:54;;;;;;;38.25;22.85;;;12.80;99.90;;;;;;5037247;28;20033;-90
2021/10/18 11:02:32;;;;;;;36.20;21.20;;;12.80;99.90;;;;;;5035207;28;20037;-90
2021/10/18 11:04:58;;;;;;;42.15;23.38;;;12.80;99.90;;;;;;5034715;28;20140;-90
2021/10/18 11:07:33;;;;;;;38.60;22.25;;;12.90;99.90;;;;;;5034909;28;20090;-89
2021/10/18 11:10:00;;;;;;;36.25;21.65;;;12.90;99.90;;;;;;5034918;28;20124;-89
2021/10/18 11:12:30;;;;;;;37.10;21.40;;;13.00;99.90;;;;;;5035004;28;20025;-90
2021/10/18 11:15:16;;;;;;;39.97;22.37;;;13.00;99.90;;;;;;5035218;28;20029;-89
2021/10/18 11:17:53;;;;;;;31.08;19.30;;;13.00;99.90;;;;;;5035552;28;20505;-89
2021/10/18 11:20:21;;;;;;;35.25;20.70;;;13.00;99.90;;;;;;5034921;28;20040;-89
2021/10/18 11:22:52;;;;;;;39.35;21.85;;;13.00;99.90;;;;;;5034579;28;20026;-90
2021/10/18 11:25:24;;;;;;;36.38;21.70;;;13.00;99.90;;;;;;5031894;28;20021;-87
2021/10/18 11:27:59;;;;;;;33.83;18.92;;;13.10;99.90;;;;;;5033375;28;20495;-87
2021/10/18 11:30:28;;;;;;;33.33;20.15;;;13.10;99.90;;;;;;5033281;28;20112;-88
2021/10/18 11:33:01;;;;;;;34.72;20.73;;;13.10;99.90;;;;;;5033166;28;20480;-88
2021/10/18 11:35:29;;;;;;;30.83;19.30;;;13.10;99.90;;;;;;5033512;28;20025;-89
2021/10/18 11:38:03;;;;;;;31.42;18.63;;;13.20;99.90;;;;;;5033244;28;20040;-87
2021/10/18 11:40:33;;;;;;;34.47;19.73;;;13.20;99.90;;;;;;5019806;28;20479;-88
2021/10/18 11:43:05;;;;;;;37.15;22.05;;;13.20;99.90;;;;;;5013931;28;20025;-88
2021/10/18 11:45:34;;;;;;;31.42;18.77;;;13.20;99.90;;;;;;5012948;28;20498;-88
2021/10/18 11:48:04;;;;;;;31.30;19.55;;;13.20;99.90;;;;;;5024238;28;20033;-88
2021/10/18 11:50:36;;;;;;;34.70;21.13;;;13.30;99.90;;;;;;5044813;28;20475;-88
2021/10/18 11:53:09;;;;;;;32.08;18.77;;;13.30;99.90;;;;;;5035778;28;20028;-88
2021/10/18 11:55:41;;;;;;;31.80;19.80;;;13.30;99.90;;;;;;5041537;28;20032;-88
2021/10/18 11:58:08;;;;;;;32.97;20.30;;;13.30;99.90;;;;;;5037249;28;20048;-89
2021/10/18 12:00:42;;;;;;;35.03;20.52;;;13.40;99.90;;;;;;5037568;28;20024;-88
2021/10/18 12:03:10;;;;;;;41.30;22.80;;;13.40;99.90;;;;;;5038274;28;20147;-87
2021/10/18 12:05:39;;;;;;;37.30;21.55;;;13.40;99.90;;;;;;5032950;28;20013;-88
2021/10/18 12:08:06;;;;;;;36.15;21.05;;;13.40;99.90;;;;;;5047115;28;20088;-88
2021/10/18 12:10:33;;;;;;;41.25;23.40;;;13.40;99.90;;;;;;5021454;28;20126;-87
2021/10/18 12:13:19;;;;;;;38.08;23.42;;;13.40;99.90;;;;;;5024565;28;20161;-87
2021/10/18 12:16:12;;;;;;;45.00;24.23;;;13.40;99.90;;;;;;5045251;28;20123;-88
2021/10/18 12:18:47;;;;;;;48.97;23.42;;;13.40;99.90;;;;;;5043449;28;20094;-88
2021/10/18 12:21:25;;;;;;;41.25;22.45;;;13.40;99.90;;;;;;5045439;28;20108;-88
2021/10/18 12:24:00;;;;;;;46.60;24.50;;;13.30;99.90;;;;;;5045286;28;20021;-88
2021/10/18 12:26:43;;;;;;;42.65;23.60;;;13.40;99.90;;;;;;5016936;28;20037;-88
2021/10/18 12:29:11;;;;;;;43.90;24.65;;;13.40;99.90;;;;;;5026862;28;20067;-88
2021/10/18 12:31:43;;;;;;;45.53;23.65;;;13.30;99.90;;;;;;5028788;28;20080;-88
2021/10/18 12:34:12;;;;;;;52.72;24.38;;;13.40;99.90;;;;;;5022032;28;20072;-88
2021/10/18 12:36:47;;;;;;;41.47;23.27;;;13.40;99.90;;;;;;5029843;28;20029;-88
2021/10/18 12:39:13;;;;;;;45.60;24.45;;;13.40;99.90;;;;;;5025067;28;20033;-88
2021/10/18 12:41:43;;;;;;;47.13;24.58;;;13.40;99.90;;;;;;5029230;28;20021;-88
2021/10/18 12:44:12;;;;;;;37.13;21.35;;;13.40;99.90;;;;;;5024505;28;20032;-89
2021/10/18 12:46:40;;;;;;;39.55;22.67;;;13.40;99.90;;;;;;5027455;28;20379;-88
2021/10/18 12:49:07;;;;;;;42.08;23.75;;;13.40;99.90;;;;;;5026726;28;20029;-88
2021/10/18 12:51:47;;;;;;;42.40;23.00;;;13.40;99.90;;;;;;5026224;28;20026;-88
2021/10/18 12:54:26;;;;;;;31.15;17.40;;;13.40;99.90;;;;;;5025961;28;20079;-88
2021/10/18 12:57:13;;;;;;;27.58;17.83;;;13.50;99.90;;;;;;5037525;28;20042;-88
2021/10/18 13:00:16;;;;;;;28.30;18.02;;;13.50;99.90;;;;;;5026312;28;20045;-87
2021/10/18 13:02:48;;;;;;;22.40;14.75;;;13.50;99.90;;;;;;4987325;28;20604;-88
2021/10/18 13:05:24;;;;;;;21.33;14.05;;;13.60;99.90;;;;;;4969188;28;21353;-88
2021/10/18 13:07:53;;;;;;;23.75;14.30;;;13.60;99.90;;;;;;4980773;28;20066;-86
2021/10/18 13:10:20;;;;;;;26.05;14.68;;;13.60;99.90;;;;;;4971990;28;20030;-88
2021/10/18 13:12:46;;;;;;;22.13;13.15;;;13.70;99.90;;;;;;4968570;28;20034;-89
2021/10/18 13:15:15;;;;;;;19.35;12.90;;;13.70;99.90;;;;;;4971456;28;20117;-87
2021/10/18 13:17:41;;;;;;;22.35;14.68;;;13.70;99.90;;;;;;4972017;28;20474;-88
2021/10/18 13:20:08;;;;;;;19.90;13.10;;;13.70;99.90;;;;;;4966249;28;20023;-88
2021/10/18 13:22:35;;;;;;;23.80;14.43;;;13.70;99.90;;;;;;4986493;28;20022;-88
2021/10/18 13:25:01;;;;;;;22.40;14.50;;;13.80;99.90;;;;;;4971708;28;20031;-87
2021/10/18 13:27:27;;;;;;;24.73;14.80;;;13.80;99.90;;;;;;4988447;28;20162;-88
2021/10/18 13:29:53;;;;;;;23.63;14.60;;;13.70;99.90;;;;;;4967235;28;20388;-88
2021/10/18 13:32:18;;;;;;;23.27;15.73;;;13.80;99.90;;;;;;4972096;28;20122;-88
2021/10/18 13:34:44;;;;;;;23.95;14.55;;;13.80;99.90;;;;;;4966030;28;20035;-89
2021/10/18 13:37:11;;;;;;;24.15;14.70;;;13.80;99.90;;;;;;5009562;28;20120;-88
2021/10/18 13:39:41;;;;;;;24.15;14.77;;;13.80;99.90;;;;;;5026450;28;20025;-88
2021/10/18 13:42:07;;;;;;;20.73;13.73;;;13.90;99.90;;;;;;5025695;28;20517;-88